< < Back
Terminal Aerodrome Forecast


Current Version              Previous Versions:   1  2  3  4  5  6  7  8  9  

Terminal Aerodrome Forecast

133
FTUS44 KOHX 301700
TAFCSV
TAF
KCSV 301724Z 3018/3118 VRB04KT P6SM SCT150
     FM310000 VRB03KT P6SM SCT050 BKN100
     FM311000 34005KT P6SM -RA OVC050=

Latest METAR

040
SAUS70 KWBC 311300 RRM
MTRCSV
METAR KCSV 311253Z AUTO 00000KT 6SM BR BKN049 OVC055 07/04 A2998 RMK AO2
RAB01E12 SLP152 P0001 T00670044


USA.gov is the U.S. government's official web portal to all federal, state and local government web resources and services.